Tiempo atmosférico en la estación meteorológica de Palacios De La Sierra, Burgos (1080 m.)



Fecha
DESCASC
Temp. máxima en grados centígrados (hora)
DESCASC
Temp. mínima en grados centígrados (hora)
DESCASC
Temp. media en grados centígrados
DESCASC
Racha de viento máxima en m/sg (hora)
DESCASC
Velocidad máxima media en intervalos de 10 minutos(hora)
DESCASC
Precipitaciones diarias en mm
DESCASC
Precipitaciones de 00:00 a 06:00 en mm
DESCASC
Precipitaciones de 06:00 a 12:00 en mm
DESCASC
Precipitaciones de 12:00 a 18:00 en mm
DESCASC
Precipitaciones de 18:00 a 24:00 en mm
DESCASC
16-06-2019 26.6 (18:00) 5 (05:50) 15.8 8.33 (10:20) 4.17 (06:00) 0 0 0 0 0
15-06-2019 21 (19:00) 5.3 (07:20) 13.2 7.78 (19:20) 4.17 (15:20) 0 0 0 0 0
14-06-2019 23.3 (16:40) 5.4 (06:20) 14.3 12.22 (16:50) 6.11 (20:10) 0 0 0 0 0
13-06-2019 24 (16:40) 7.8 (00:00) 15.9 12.78 (14:50) 5 (14:50) 0 0 0 0 0
12-06-2019 19 (19:50) 0 (00:00) 9.5 9.72 (16:50) 4.17 (13:20) 0 0 0 0 0
11-06-2019 13.9 (17:10) 4.5 (00:00) 9.2 12.22 (14:40) 6.11 (11:40) 6.4 6.4 0 0 0
10-06-2019 16.9 (17:40) 2.9 (00:00) 9.9 12.78 (14:30) 5.83 (14:30) 0 0 0 0 0
09-06-2019 22.5 (17:20) 8.9 (00:00) 15.7 13.33 (14:00) 5 (16:40) 0 0 0 0 0
08-06-2019 23.1 (17:00) 0.4 (00:00) 11.8 10.56 (20:30) 5.28 (21:00) 0 0 0 0 0
07-06-2019 15.9 (18:00) 4.8 (00:00) 10.3 15 (00:40) 6.94 (11:30) 6.4 6.4 0 0 0
06-06-2019 20.9 (17:50) 4.7 (00:00) 12.8 14.44 (18:20) 6.94 (19:50) 0 0 0 0 0
05-06-2019 15.2 (17:10) 7.1 (00:00) 11.1 13.61 (15:30) 6.67 (12:40) 2 0 0.4 1.6 0
04-06-2019 24.9 (16:30) 7 (00:00) 15.9 14.44 (15:40) 5.83 (18:00) 0 0 0 0 0
03-06-2019 28.5 (17:00) 8.6 (00:00) 18.6 12.5 (16:10) 5.83 (16:00) 0 0 0 0 0
02-06-2019 29.5 (16:30) 12.2 (00:00) 20.8 11.67 (15:30) 5.28 (15:30) 0 0 0 0 0
01-06-2019 30 (18:10) 8.5 (00:00) 19.3 8.61 (15:10) 4.17 (23:59) 0 0 0 0 0
31-05-2019 28.4 (18:30) 5 (00:00) 16.7 6.67 (15:50) 3.89 (23:40) 0 0 0 0 0
30-05-2019 25.6 (18:20) 2.6 (00:00) 14.1 9.44 (13:00) 5.28 (12:50) 0 0 0 0 0
29-05-2019 18.5 (18:00) 3.6 (00:00) 11 11.11 (20:00) 5.56 (14:10) 0 0 0 0 0
28-05-2019 16.7 (14:00) 1.4 (00:00) 9.1 11.11 (17:50) 6.67 (17:50) 0 0 0 0 0
27-05-2019 20.7 (14:40) 4.2 (00:00) 12.5 10.56 (16:40) 5.28 (16:40) 0 0 0 0 0
26-05-2019 19.5 (15:10) 2 (00:00) 10.8 10 (15:40) 6.11 (15:40) 0 0 0 0 0
25-05-2019 15.2 (16:20) 7.6 (00:00) 11.4 14.17 (13:10) 8.61 (13:10) 0 0 0 0 0
24-05-2019 15.2 (11:50) 8.5 (00:00) 11.8 13.06 (18:00) 6.94 (15:20) 1.2 0 1.2 0 0
23-05-2019 23.3 (18:20) 7.3 (00:00) 15.3 18.89 (11:00) 4.72 (21:00) 0 0 0 0 0
22-05-2019 22.7 (18:00) 2.5 (00:00) 12.6 14.17 (08:50) 5.28 (16:10) 0 0 0 0 0
21-05-2019 20.6 (17:00) 2.5 (07:00) 11.6 17.22 (21:30) 5 (18:40) 0 0 0 0 0

Gráficas

Temp. máximas Temp. mínimas Temp. medias Precipitaciones Rachas de viento máximas Velocidades máximas media en intervalos de 10 minutos

Datos horarios

Fecha y hora oficial Temperatura (ºC) Velocidad del viento (km/h) Dirección del viento Racha (km/h) Dirección de racha Precipitación (mm) Presión (hPa) Tendencia (hPa) Humedad (%)
2019-06-19 23:00:00 16 0 Calma 8 Noroeste 0 894.6 1.3 57
2019-06-19 22:00:00 18 6 Oeste 23 Noroeste 0 894 0.9 48
2019-06-19 21:00:00 20.9 11 Noroeste 29 Oeste 0 893.6 0.2 40
2019-06-19 20:00:00 22.5 15 Noroeste 32 Noroeste 0 893.3 -0.4 38
2019-06-19 19:00:00 23.4 11 Oeste 38 Noroeste 0 893.1 -1 36
2019-06-19 18:00:00 23.6 15 Noroeste 32 Oeste 0 893.4 -1 34
2019-06-19 17:00:00 23.3 17 Oeste 34 Noroeste 0 893.7 -0.9 33
2019-06-19 16:00:00 21.5 14 Oeste 29 Oeste 0 894.1 -0.6 40
2019-06-19 15:00:00 20.7 7 Oeste 19 Oeste 0 894.4 -0.3 47
2019-06-19 14:00:00 19.7 8 Sudoeste 28 Noroeste 0 894.6 0 46
2019-06-19 13:00:00 18.2 14 Oeste 32 Noroeste 0 894.7 0.3 51
2019-06-19 12:00:00 17.4 16 Sudoeste 26 Sudoeste 0 894.7 0.4 56
2019-06-19 11:00:00 16.4 10 Oeste 27 Sudoeste 0 894.6 0.3 62
2019-06-19 10:00:00 15.4 11 Oeste 23 Sudoeste 0 894.4 0.4 66
2019-06-19 09:00:00 13.4 2 Sudeste 5 Nordeste 0 894.3 0.5 74
2019-06-19 08:00:00 11.4 -- -- -- -- 0 894.3 0.7 78
2019-06-19 07:00:00 10.8 3 Sur 7 Sur 0 894 0.5 78
2019-06-19 06:00:00 9.7 3 Oeste 8 Sudeste 0 893.8 0.3 82
2019-06-19 05:00:00 8.8 0 Calma 7 Sudeste 0 893.6 0 82
2019-06-19 04:00:00 9.4 4 Sudeste 9 Sur 0 893.5 -0.3 80
2019-06-19 03:00:00 9 3 Nordeste 6 Sudeste 0 893.5 -0.4 79
2019-06-19 02:00:00 10.8 0 Calma 4 Nordeste 0 893.6 0 73
2019-06-19 01:00:00 11.6 4 Noroeste 15 Sudoeste 0 893.8 0.7 70
2019-06-19 00:00:00 13.9 6 Oeste 14 Oeste 0 893.9 1.6 58
2019-06-18 23:00:00 17 6 Oeste 20 Sudoeste 0 893.6 1.9 47
2019-06-18 22:00:00 19.4 12 Oeste 35 Oeste 0 893.1 1.6 39
2019-06-18 21:00:00 22.8 17 Oeste 39 Oeste 0 892.3 0.8 29
2019-06-18 20:00:00 25.2 19 Oeste 42 Oeste 0 891.7 0.1 13
2019-06-18 19:00:00 26.1 18 Sudoeste 48 Oeste 0 891.5 -0.3 12
2019-06-18 18:00:00 26.7 21 Sudoeste 51 Sudoeste 0 891.5 -0.4 13
2019-06-18 17:00:00 26.9 22 Sur 47 Sudoeste 0 891.6 -0.7 12
2019-06-18 16:00:00 27.3 18 Sudoeste 47 Sudoeste 0 891.8 -0.7 12
2019-06-18 15:00:00 27.2 15 Sudoeste 54 Sur 0 891.9 -0.9 13
2019-06-18 14:00:00 25.9 21 Sur 57 Sudoeste 0 892.3 -0.9 13
2019-06-18 13:00:00 25.7 18 Sudoeste 44 Sur 0 892.5 -0.9 13
2019-06-18 12:00:00 25 11 Sudoeste 33 Sudoeste 0 892.8 -0.7 17
2019-06-18 11:00:00 23.8 9 Sudoeste 24 Sur 0 893.2 -0.2 22
2019-06-18 10:00:00 21.7 5 Sudeste 21 Sudeste 0 893.4 0.7 31
2019-06-18 09:00:00 18.8 7 Este 13 Este 0 893.5 1.1 35
2019-06-18 08:00:00 13.1 9 Sur 20 Sur 0 893.4 0.9 49
2019-06-18 07:00:00 10.8 14 Sur 18 Sur 0 892.7 -0.7 56
2019-06-18 06:00:00 12.4 6 Sur 13 Sudeste 0 892.4 -2 50
2019-06-18 05:00:00 14.8 6 Sudeste 18 Este 0 892.5 -2 44
2019-06-18 04:00:00 15.1 9 Sudeste 17 Sur 0 893.4 -1.4 43
2019-06-18 03:00:00 15 3 Sudeste 16 Norte 0 894.4 -0.1 45
2019-06-18 02:00:00 15.8 3 Sur 10 Noroeste 0 894.5 0.5 45
2019-06-18 01:00:00 17.5 3 Noroeste 21 Oeste 0 894.8 1.3 34
2019-06-18 00:00:00 18.6 8 Oeste 18 Oeste 0 894.5 1 30
2019-06-17 23:00:00 18.5 5 Noroeste 15 Sudoeste 0 894 0.6 37
2019-06-17 22:00:00 22.3 9 Sudoeste 21 Sudoeste 0 893.5 0 24
2019-06-17 21:00:00 23.4 10 Sudoeste 18 Sudoeste 0 893.5 0 22
2019-06-17 20:00:00 25 5 Sudoeste 21 Oeste 0 893.4 -0.5 24
2019-06-17 19:00:00 25.6 13 Oeste 31 Oeste 0 893.5 -1 17
2019-06-17 18:00:00 28.1 9 Sur 31 Oeste 0 893.5 -1.5 16
2019-06-17 17:00:00 28.2 6 Sur 26 Sur 0 893.9 -2 15
2019-06-17 16:00:00 27.8 10 Sur 30 Oeste 0 894.5 -1.7 14
2019-06-17 15:00:00 27.2 11 Sudoeste 36 Noroeste 0 895 -1.5 16
2019-06-17 14:00:00 26.1 14 Sudoeste 30 Sudoeste 0 895.9 -0.7 15
2019-06-17 13:00:00 25.4 10 Sudoeste 31 Oeste 0 896.2 -0.4 18
2019-06-17 12:00:00 24.5 9 Sudeste 21 Sudeste 0 896.5 0 21
2019-06-17 11:00:00 22.9 8 Sudeste 15 Sudeste 0 896.6 -0.2 25
2019-06-17 10:00:00 19.9 3 Sudeste 10 Sur 0 896.6 0 41
2019-06-17 09:00:00 14.6 4 Sudeste 9 Este 0 896.5 0 51
2019-06-17 08:00:00 8.9 3 Sudeste 12 Sur 0 896.8 0.6 70
2019-06-17 07:00:00 6.9 8 Sur 23 Sur 0 896.6 0.4 77
2019-06-17 06:00:00 7.5 10 Sur 18 Sudeste 0 896.5 0 75
2019-06-17 05:00:00 8.3 10 Sur 17 Sur 0 896.2 -0.4 72
2019-06-17 04:00:00 8.8 13 Sur 21 Sur 0 896.2 -0.4 71
2019-06-17 03:00:00 10.2 12 Sur 19 Sur 0 896.5 -0.2 65
2019-06-17 02:00:00 11.5 6 Sur 17 Sur 0 896.6 0.5 59
2019-06-17 01:00:00 13.1 6 Sudeste 18 Sur 0 896.6 0.8 55
2019-06-17 00:00:00 13.3 3 Sudoeste 19 Sur 0 896.7 1.2 55
2019-06-16 23:00:00 15.3 2 Norte 15 Sur 0 896.1 0.6 48
2019-06-16 22:00:00 18.2 9 Sur 13 Sur 0 895.8 0.3 39
2019-06-16 21:00:00 22.2 3 Oeste 13 Oeste 0 895.5 -0.2 31
2019-06-16 20:00:00 24.9 8 Oeste 15 Sudoeste 0 895.5 -0.5 19
2019-06-16 19:00:00 25.1 7 Noroeste 23 Oeste 0 895.5 -1 22
2019-06-16 18:00:00 26.4 10 Oeste 28 Sudoeste 0 895.7 -1.4 19
2019-06-16 17:00:00 25.6 8 Nordeste 21 Noroeste 0 896 -1.4 18
2019-06-16 16:00:00 25.4 9 Oeste 22 Este 0 896.5 -1.4 21
2019-06-16 15:00:00 24.5 8 Sudeste 26 Sudeste 0 897.1 -1 19
2019-06-16 14:00:00 23.8 7 Oeste 29 Sur 0 897.4 -1.2 25
2019-06-16 13:00:00 22.6 7 Sudoeste 18 Sudeste 0 897.9 -0.6 25
2019-06-16 12:00:00 21.5 9 Sudeste 26 Sudeste 0 898.1 -0.1 27
2019-06-16 11:00:00 19.4 14 Este 30 Este 0 898.6 0.2 39
2019-06-16 10:00:00 17.7 10 Sudeste 23 Este 0 898.5 0.5 43
2019-06-16 09:00:00 14.3 10 Este 16 Este 0 898.2 0.2 57
2019-06-16 08:00:00 8 2 Este 8 Sur 0 898.4 0.2 78
2019-06-16 07:00:00 5.5 4 Sudeste 19 Sur 0 898 -0.6 87
2019-06-16 06:00:00 5.1 15 Sur 20 Sur 0 898 -0.9 88
2019-06-16 05:00:00 5.9 10 Sur 15 Sur 0 898.2 -0.7 85
2019-06-16 04:00:00 6.7 6 Sur 14 Sur 0 898.6 -0.3 83
2019-06-16 03:00:00 7 4 Sur 19 Sur 0 898.9 0.4 78
2019-06-16 02:00:00 7.5 15 Sur 20 Sur 0 898.9 0.7 74
2019-06-16 01:00:00 9.7 9 Sur 19 Sur 0 898.9 1.3 67
2019-06-16 00:00:00 8.7 3 Sudeste 14 Sur 0 898.5 1 68
2019-06-15 23:00:00 11.9 10 Sur 14 Sur 0 898.2 0.9 54
2019-06-15 22:00:00 14.5 0 Calma 7 Noroeste 0 897.6 0.5 49
2019-06-15 21:00:00 19.9 2 Oeste 17 Noroeste 0 897.5 0.2 32
2019-06-15 20:00:00 20.3 8 Norte 28 Oeste 0 897.3 -0.1 30
2019-06-15 19:00:00 20.9 6 Oeste 25 Oeste 0 897.1 -0.3 28
2019-06-15 18:00:00 20.8 10 Oeste 23 Noroeste 0 897.3 -0.2 29
2019-06-15 17:00:00 20.1 9 Norte 27 Noroeste 0 897.4 -0.3 32
2019-06-15 16:00:00 18.9 9 Norte 26 Noroeste 0 897.4 -0.5 36
2019-06-15 15:00:00 18.6 8 Oeste 26 Noroeste 0 897.5 -0.5 34
2019-06-15 14:00:00 17.5 6 Noroeste 27 Noroeste 0 897.7 0 42
2019-06-15 13:00:00 16.2 9 Noroeste 19 Oeste 0 897.9 0.5 44
2019-06-15 12:00:00 15.1 6 Noroeste 19 Norte 0 898 0.8 52
2019-06-15 11:00:00 13.3 7 Noroeste 22 Noroeste 0 897.7 0.9 58
2019-06-15 10:00:00 12.2 9 Norte 16 Noroeste 0 897.4 1.1 62
2019-06-15 09:00:00 10.1 5 Este 9 Nordeste 0 897.2 1.4 69
2019-06-15 08:00:00 6 4 Este 8 Este 0 896.8 1.8 88
2019-06-15 07:00:00 5.4 2 Nordeste 9 Este 0 896.3 1.3 88
2019-06-15 06:00:00 5.6 0 Calma 5 Sudeste 0 895.8 1 86
2019-06-15 05:00:00 7.3 2 Sur 5 Nordeste 0 895 0.5 84
2019-06-15 04:00:00 8.4 4 Norte 15 Nordeste 0 895 0.6 83
2019-06-15 03:00:00 8.9 5 Oeste 19 Oeste 0 894.8 0.9 78
2019-06-15 02:00:00 10.1 5 Noroeste 18 Oeste 0 894.5 1.2 74
2019-06-15 01:00:00 12.1 8 Oeste 22 Oeste 0 894.4 2.5 64
2019-06-15 00:00:00 13.4 13 Oeste 32 Oeste 0 893.9 2.7 42
2019-06-14 23:00:00 15.1 13 Oeste 32 Oeste 0 893.3 2.9 35
2019-06-14 22:00:00 16.1 12 Oeste 24 Oeste 0 891.9 2 29
2019-06-14 21:00:00 18.7 10 Oeste 43 Noroeste 0 891.2 1.3 24
2019-06-14 20:00:00 21.1 18 Noroeste 39 Noroeste 0 890.4 0.6 20
2019-06-14 19:00:00 21.1 7 Oeste 32 Oeste 0 889.9 0.1 22
2019-06-14 18:00:00 22.9 15 Oeste 39 Sudoeste 0 889.9 0.1 16
2019-06-14 17:00:00 22.7 17 Oeste 44 Oeste 0 889.8 0 20
2019-06-14 16:00:00 22.3 22 Oeste 41 Oeste 0 889.8 -0.2 23
2019-06-14 15:00:00 22.2 15 Sudoeste 39 Oeste 0 889.8 -0.3 27
2019-06-14 14:00:00 21.9 10 Oeste 30 Sudoeste 0 889.8 -0.3 26
2019-06-14 13:00:00 20.8 18 Oeste 37 Oeste 0 890 -0.1 28
2019-06-14 12:00:00 20.8 9 Oeste 31 Oeste 0 890.1 0.2 31
2019-06-14 11:00:00 19.6 15 Sudoeste 31 Oeste 0 890.1 0.1 29
2019-06-14 10:00:00 18.1 5 Este 13 Sudeste 0 890.1 0 45
2019-06-14 09:00:00 13.6 4 Sudeste 10 Este 0 889.9 0 62
2019-06-14 08:00:00 7.2 6 Sudeste 19 Sur 0 890 0.3 81
2019-06-14 07:00:00 6 5 Este 12 Sur 0 890.1 0.1 83
2019-06-14 06:00:00 6 5 Sudeste 18 Sur 0 889.9 -0.4 80
2019-06-14 05:00:00 6.6 8 Sur 19 Sur 0 889.7 -0.6 77
2019-06-14 04:00:00 7.2 11 Sur 20 Sur 0 890 -0.4 75
2019-06-14 03:00:00 7.1 4 Sudeste 10 Sur 0 890.3 0.1 76
2019-06-14 02:00:00 7.7 2 Sur 6 Sudeste 0 890.3 0.8 72
2019-06-14 01:00:00 9.7 2 Sur 6 Sur 0 890.4 1.8 63
2019-06-14 00:00:00 13 0 Calma 9 Norte 0 890.2 1.8 50
2019-06-13 23:00:00 16.1 6 Noroeste 24 Oeste 0 889.5 1.6 31
2019-06-13 22:00:00 18.2 10 Oeste 21 Oeste 0 888.6 0.6 26
2019-06-13 21:00:00 20.6 4 Sur 25 Sudoeste 0 888.4 0.3 25
2019-06-13 20:00:00 21.8 9 Sudoeste 30 Sur 0 887.9 -0.4 23
2019-06-13 19:00:00 22.4 13 Sudoeste 32 Sudoeste 0 888 -0.4 23
2019-06-13 18:00:00 23.4 14 Sudoeste 38 Sudoeste 0 888.1 -0.7 22
2019-06-13 17:00:00 22.6 12 Sur 32 Sudoeste 0 888.3 -0.7 24
2019-06-13 16:00:00 22.8 15 Sudoeste 37 Sudoeste 0 888.4 -1 22
2019-06-13 15:00:00 22.8 17 Sudoeste 46 Sudoeste 0 888.8 -0.8 20
2019-06-13 14:00:00 21.5 14 Sur 37 Sur 0 889 -0.5 25
2019-06-13 13:00:00 20 14 Sur 45 Sur 0 889.4 -0.3 32
2019-06-13 12:00:00 19.5 12 Sur 38 Sudeste 0 889.6 -0.2 32
2019-06-13 11:00:00 17.2 15 Sudeste 36 Sudeste 0 889.5 0.1 49
2019-06-13 10:00:00 14.9 12 Sudeste 26 Sudeste 0 889.7 0.2 58
2019-06-13 09:00:00 12.8 14 Este 24 Sudeste 0 889.8 1.2 62
2019-06-13 08:00:00 11.1 14 Este 30 Este 0 889.4 0.9 66
2019-06-13 07:00:00 9.2 13 Sudeste 24 Sudeste 0 889.5 0.9 71
2019-06-13 06:00:00 9.4 12 Sudeste 21 Sudeste 0 888.6 -0.4 68
2019-06-13 05:00:00 9.7 12 Sudeste 23 Sudeste 0 888.5 -1 64
2019-06-13 04:00:00 10 10 Sudeste 20 Sudeste 0 888.6 -1.3 60
2019-06-13 03:00:00 9.4 8 Este 24 Este 0 889 -1.2 57
2019-06-13 02:00:00 8.7 8 Este 13 Sudeste 0 889.5 -0.5 60
2019-06-13 01:00:00 7.9 2 Sudeste 8 Sudeste 0 889.9 0.2 67
2019-06-13 00:00:00 9.3 3 Noroeste 9 Noroeste 0 890.2 0.3 65
2019-06-12 23:00:00 11.4 4 Sudeste 12 Este 0 890 0 54
2019-06-12 22:00:00 13.7 3 Sudeste 10 Sur 0 889.7 -0.3 47
2019-06-12 21:00:00 16.5 2 Sudeste 8 Sudeste 0 889.9 -0.6 37
2019-06-12 20:00:00 17.4 6 Sur 19 Sudeste 0 890 -1 25
2019-06-12 19:00:00 18.5 6 Sur 33 Sudoeste 0 890 -1.4 23
2019-06-12 18:00:00 18.6 9 Oeste 27 Noroeste 0 890.5 -1.3 27
2019-06-12 17:00:00 16.6 13 Oeste 35 Oeste 0 891 -1.2 26
2019-06-12 16:00:00 17 11 Oeste 34 Sudoeste 0 891.4 -1.2 25
2019-06-12 15:00:00 15.9 12 Oeste 33 Noroeste 0 891.8 -0.9 31
2019-06-12 14:00:00 15.4 13 Oeste 31 Noroeste 0 892.2 -0.5 30
2019-06-12 13:00:00 13.7 15 Oeste 30 Oeste 0 892.6 -0.2 37
2019-06-12 12:00:00 13 13 Oeste 32 Sudoeste 0 892.7 -0.3 40
2019-06-12 11:00:00 12 9 Noroeste 18 Noroeste 0 892.7 0 47
2019-06-12 10:00:00 9.7 6 Noroeste 11 Noroeste 0 892.8 0.1 63
2019-06-12 09:00:00 6.6 3 Sudeste 10 Sur 0 893 0.6 73
2019-06-12 08:00:00 2.8 4 Sur 9 Sur 0 892.7 0.3 88
2019-06-12 07:00:00 0.6 6 Sur 18 Sur 0 892.7 0.2 92
2019-06-12 06:00:00 0.6 9 Sur 14 Sur 0 892.4 -0.4 92
2019-06-12 05:00:00 0.1 2 Sudoeste 10 Sur 0 892.4 -0.6 90
2019-06-12 04:00:00 1.6 5 Sur 13 Sur 0 892.5 -0.5 89
2019-06-12 03:00:00 1.9 4 Sur 12 Sur 0 892.8 -0.6 88
2019-06-12 02:00:00 1.8 8 Sur 21 Sur 0 893 -1 89
2019-06-12 01:00:00 2.7 13 Sur 19 Sur 0 893 -0.4 86
2019-06-12 00:00:00 4.5 6 Sur 13 Sur 0 893.4 0.1 76
2019-06-11 23:00:00 5.7 6 Sur 16 Sur 0 894 1 72
2019-06-11 22:00:00 8.1 5 Oeste 19 Norte 0 893.4 0.4 60
2019-06-11 21:00:00 11 11 Noroeste 27 Noroeste 0 893.3 0.5 45
2019-06-11 20:00:00 11.8 13 Norte 33 Norte 0 893 0.2 44
2019-06-11 19:00:00 12.1 16 Norte 38 Noroeste 0 893 0.2 46
2019-06-11 18:00:00 13.6 16 Noroeste 33 Norte 0 892.8 0 43
2019-06-11 17:00:00 12.5 17 Noroeste 37 Norte 0 892.8 0 44
2019-06-11 16:00:00 13.3 19 Noroeste 41 Noroeste 0 892.8 0.2 38
2019-06-11 15:00:00 12.5 15 Noroeste 44 Noroeste 0 892.8 0.2 47
2019-06-11 14:00:00 11.3 18 Norte 42 Norte 0 892.8 0.7 47
2019-06-11 13:00:00 11.3 19 Noroeste 37 Noroeste 0 892.6 0.5 50
2019-06-11 12:00:00 9.7 21 Norte 42 Noroeste 0 892.6 1 59
2019-06-11 11:00:00 10.7 18 Norte 38 Noroeste 0 892.1 0.6 57
2019-06-11 10:00:00 8.6 12 Noroeste 32 Noroeste 0 892.1 0.7 67
2019-06-11 09:00:00 7.7 9 Noroeste 24 Noroeste 0 891.6 0.1 77
2019-06-11 08:00:00 6.3 4 Oeste 13 Noroeste 0 891.5 -0.5 85
2019-06-11 07:00:00 5.8 2 Noroeste 17 Sudeste 0 891.4 -0.3 89
2019-06-11 06:00:00 6.2 3 Sur 10 Este 2.4 891.5 -0.1 90
2019-06-11 05:00:00 6.8 4 Este 9 Este 3.6 892 0.2 87
2019-06-11 04:00:00 7.8 4 Norte 12 Sudeste 0.4 891.7 -0.4 84
2019-06-11 03:00:00 9 8 Sudeste 18 Este 0 891.6 -0.4 73
2019-06-11 02:00:00 9.6 11 Este 19 Este 0 891.8 -0.7 66
2019-06-11 01:00:00 9.9 4 Nordeste 10 Sur 0 892.1 -0.4 69
2019-06-11 00:00:00 10.3 0 Calma 5 Este 0 892 -1.1 63
2019-06-10 23:00:00 11.4 3 Este 8 Sur 0 892.5 -0.8 59
2019-06-10 22:00:00 11.9 2 Sudoeste 9 Norte 0 892.5 -0.9 59
2019-06-10 21:00:00 12.6 7 Norte 23 Noroeste 0 893.1 -0.8 53
2019-06-10 20:00:00 13.1 14 Noroeste 33 Noroeste 0 893.3 -0.9 48
2019-06-10 19:00:00 15.6 17 Oeste 40 Oeste 0 893.4 -1.1 38
2019-06-10 18:00:00 16.3 20 Oeste 37 Oeste 0 893.9 -0.8 33
2019-06-10 17:00:00 15.6 19 Oeste 35 Oeste 0 894.2 -0.8 36
2019-06-10 16:00:00 15.7 19 Oeste 35 Noroeste 0 894.5 -0.6 42
2019-06-10 15:00:00 15.8 17 Noroeste 46 Noroeste 0 894.7 -0.6 42
2019-06-10 14:00:00 15.9 19 Oeste 37 Noroeste 0 895 -0.4 38
2019-06-10 13:00:00 15.9 14 Oeste 33 Noroeste 0 895.1 -0.4 38
2019-06-10 12:00:00 14.9 14 Noroeste 30 Noroeste 0 895.3 -0.3 45
2019-06-10 11:00:00 13.6 13 Oeste 27 Oeste 0 895.4 0.2 57
2019-06-10 10:00:00 12.2 8 Oeste 24 Noroeste 0 895.5 0.3 66
2019-06-10 09:00:00 9.4 3 Norte 8 Noroeste 0 895.6 0.3 78
2019-06-10 08:00:00 6 4 Sudeste 8 Sur 0 895.2 -0.2 89
2019-06-10 07:00:00 3.3 0 Calma 8 Sudoeste 0 895.2 -0.2 92
2019-06-10 06:00:00 3.8 2 Oeste 7 Sur 0 895.3 -0.3 89
2019-06-10 05:00:00 4.6 0 Calma 4 Noroeste 0 895.4 -0.4 89
2019-06-10 04:00:00 5.9 2 Noroeste 8 Sur 0 895.4 -0.4 84
2019-06-10 03:00:00 7.6 2 Norte 9 Sur 0 895.6 0.1 84
2019-06-10 02:00:00 9 7 Sur 13 Sur 0 895.8 0.7 77
2019-06-10 01:00:00 9.5 9 Sur 13 Sur 0 895.8 1.4 77
2019-06-10 00:00:00 10.5 6 Sur 10 Sudoeste 0 895.5 1.6 73
2019-06-09 23:00:00 12.7 5 Sur 12 Sur 0 895.1 1.7 67
2019-06-09 22:00:00 14.6 6 Sudeste 21 Noroeste 0 894.4 1.1 59
2019-06-09 21:00:00 17.9 12 Oeste 32 Oeste 0 893.9 0.3 48
2019-06-09 20:00:00 20.3 13 Noroeste 30 Oeste 0 893.4 -0.4 28
2019-06-09 19:00:00 21.9 8 Oeste 28 Oeste 0 893.3 -1 25
2019-06-09 18:00:00 21.8 14 Oeste 37 Noroeste 0 893.6 -1 24
2019-06-09 17:00:00 21.7 7 Norte 33 Noroeste 0 893.8 -1.1 26
2019-06-09 16:00:00 21.9 13 Sudoeste 42 Noroeste 0 894.3 -0.8 27
2019-06-09 15:00:00 21.3 12 Oeste 35 Oeste 0 894.6 -0.5 26
2019-06-09 14:00:00 20.4 15 Oeste 48 Noroeste 0 894.9 -0.3 25
2019-06-09 13:00:00 19.7 14 Oeste 35 Noroeste 0 895.1 -0.2 29
2019-06-09 12:00:00 19 14 Oeste 32 Sudoeste 0 895.1 -0.2 33
2019-06-09 11:00:00 18.5 7 Oeste 19 Sudoeste 0 895.2 0.1 39
2019-06-09 10:00:00 17 4 Sudeste 9 Sudeste 0 895.3 0.6 44
2019-06-09 09:00:00 14.9 3 Este 8 Sudeste 0 895.3 0.4 55
2019-06-09 08:00:00 10.1 2 Nordeste 12 Sur 0 895.1 -0.2 79
2019-06-09 07:00:00 9.1 9 Sur 12 Sur 0 894.7 -0.7 82
2019-06-09 06:00:00 10.8 10 Sur 15 Sur 0 894.9 -0.4 74
2019-06-09 05:00:00 11.9 6 Sur 21 Sudoeste 0 895.3 -0.4 70
2019-06-09 04:00:00 12 8 Sur 15 Sur 0 895.4 -0.6 69
2019-06-09 03:00:00 13.2 8 Sudeste 15 Este 0 895.3 -1 65
2019-06-09 02:00:00 12.9 5 Sur 12 Sur 0 895.7 -0.5 67
2019-06-09 01:00:00 13 5 Sudeste 16 Sudeste 0 896 0.5 69
2019-06-09 00:00:00 13.5 8 Sudeste 12 Sudeste 0 896.3 1 70
2019-06-08 23:00:00 13.8 5 Este 10 Sudeste 0 896.2 1.2 71
2019-06-08 22:00:00 15 5 Este 33 Sudeste 0 895.5 0.3 68
2019-06-08 21:00:00 18.6 19 Sudeste 38 Este 0 895.3 -0.5 48
2019-06-08 20:00:00 21.5 5 Sudeste 27 Sudeste 0 895 -1.2 30
2019-06-08 19:00:00 21.8 8 Sudeste 28 Sudeste 0 895.2 -1.7 29
2019-06-08 18:00:00 21.7 7 Sur 29 Sur 0 895.8 -1.7 29
2019-06-08 17:00:00 23.1 10 Sur 33 Sudeste 0 896.2 -1.9 28
2019-06-08 16:00:00 21 18 Sudeste 35 Sudeste 0 896.9 -1.7 31
2019-06-08 15:00:00 20.1 10 Sudeste 30 Sudeste 0 897.5 -1.4 28
2019-06-08 14:00:00 19.3 10 Sudeste 26 Sur 0 898.1 -1.2 31
2019-06-08 13:00:00 19.2 13 Sudeste 35 Sudeste 0 898.6 -0.7 28
2019-06-08 12:00:00 17.6 15 Sudeste 32 Sudeste 0 898.9 -0.8 33
2019-06-08 11:00:00 16.1 16 Este 30 Este 0 899.3 -0.6 37
2019-06-08 10:00:00 14.1 9 Este 19 Este 0 899.3 -0.6 49
2019-06-08 09:00:00 8.2 2 Sudoeste 12 Nordeste 0 899.7 -0.1 71
2019-06-08 08:00:00 3.3 5 Sudeste 14 Sur 0 899.9 0.3 80
2019-06-08 07:00:00 0.6 10 Sur 17 Sur 0 899.9 0.3 89
2019-06-08 06:00:00 0.8 7 Sudeste 17 Sur 0 899.8 0.2 89
2019-06-08 05:00:00 0.5 13 Sur 19 Sur 0 899.6 0 89
2019-06-08 04:00:00 1.1 5 Sur 16 Sur 0 899.6 0.2 88
2019-06-08 03:00:00 1.9 10 Sur 17 Sur 0 899.6 0.4 87
2019-06-08 02:00:00 2.7 6 Sudeste 14 Sur 0 899.6 0.7 86
2019-06-08 01:00:00 3.4 5 Sudeste 14 Sur 0 899.4 1.2 81
2019-06-08 00:00:00 4.8 0 Calma 6 Sur 0 899.2 1.5 75
2019-06-07 23:00:00 6.5 2 Este 15 Sur 0 898.9 1.6 69
2019-06-07 22:00:00 9.7 8 Sudoeste 20 Oeste 0 898.2 1.4 47
2019-06-07 21:00:00 13.7 8 Oeste 18 Oeste 0 897.7 1.3 35
2019-06-07 20:00:00 13.5 8 Oeste 30 Noroeste 0 897.3 1.3 38
2019-06-07 19:00:00 15.2 18 Oeste 31 Noroeste 0 896.8 1.1 30
2019-06-07 18:00:00 15.3 9 Oeste 36 Oeste 0 896.4 1 32
2019-06-07 17:00:00 14.1 15 Noroeste 40 Oeste 0 896 1.1 33
2019-06-07 16:00:00 14.6 14 Oeste 37 Noroeste 0 895.7 1.4 38
2019-06-07 15:00:00 12.5 15 Oeste 39 Noroeste 0 895.4 1.9 42
2019-06-07 14:00:00 12.3 15 Oeste 39 Noroeste 0 894.9 2 48
2019-06-07 13:00:00 11 17 Noroeste 43 Oeste 0 894.3 2 54
2019-06-07 12:00:00 9.6 18 Oeste 43 Oeste 0 893.5 1.8 62
2019-06-07 11:00:00 8.7 19 Oeste 36 Sudoeste 0 892.9 2 69
2019-06-07 10:00:00 7 17 Oeste 37 Oeste 0 892.3 2.1 76
2019-06-07 09:00:00 5.7 15 Oeste 35 Noroeste 0 891.7 2.3 83
2019-06-07 08:00:00 5.4 14 Oeste 28 Oeste 0 890.9 2.1 84
2019-06-07 07:00:00 5.3 13 Oeste 32 Oeste 0 890.2 1.7 84
2019-06-07 06:00:00 5.5 15 Oeste 36 Oeste 0 889.4 1.2 82
2019-06-07 05:00:00 5.7 11 Oeste 26 Oeste 0 888.8 2.3 85
2019-06-07 04:00:00 5.4 7 Sudoeste 28 Noroeste 2.6 888.5 2.4 87
2019-06-07 03:00:00 5.8 10 Oeste 53 Noroeste 3.2 888.2 2.7 86
2019-06-07 02:00:00 9 13 Oeste 45 Oeste 0.2 886.5 0.8 85
2019-06-07 01:00:00 11.2 10 Sudoeste 54 Oeste 0.4 886.1 0.8 69
2019-06-07 00:00:00 15.3 12 Sur 28 Sudoeste 0 885.5 0.3 33
2019-06-06 23:00:00 15.5 15 Sudoeste 51 Sur 0 885.7 0.5 34
2019-06-06 22:00:00 16.6 19 Sudoeste 42 Sur 0 885.3 -0.2 28
2019-06-06 21:00:00 17.3 12 Sur 52 Sudoeste 0 885.2 -0.9 26
2019-06-06 20:00:00 18.5 22 Sudoeste 49 Sur 0 885.2 -1.7 24
2019-06-06 19:00:00 20.1 15 Sudoeste 52 Sudoeste 0 885.5 -2 22
2019-06-06 18:00:00 19.5 20 Sudoeste 43 Sudoeste 0 886.1 -1.9 22
2019-06-06 17:00:00 18.4 20 Sur 51 Sur 0 886.9 -1.7 24
2019-06-06 16:00:00 20 18 Sudoeste 41 Sudoeste 0 887.5 -2 22
2019-06-06 15:00:00 19.2 17 Sudoeste 50 Sudoeste 0 888 -2.2 22
2019-06-06 14:00:00 18.5 12 Sur 38 Sudoeste 0 888.6 -2 26
2019-06-06 13:00:00 16.6 14 Sudeste 39 Sudeste 0 889.5 -1.6 34
2019-06-06 12:00:00 15 8 Sur 39 Sur 0 890.2 -1.3 38
2019-06-06 11:00:00 13.8 6 Sur 23 Sur 0 890.6 -1.2 48
2019-06-06 10:00:00 11.5 8 Este 17 Este 0 891.1 -0.8 59
2019-06-06 09:00:00 9.1 4 Sudeste 9 Este 0 891.5 -0.3 77
2019-06-06 08:00:00 6.8 0 Calma 4 Sudeste 0 891.8 -0.1 86
2019-06-06 07:00:00 6 3 Este 6 Este 0 891.9 -0.1 88
2019-06-06 06:00:00 5.6 2 Sudeste 9 Sur 0 891.8 -0.2 89
2019-06-06 05:00:00 5.2 3 Este 8 Sudoeste 0 891.9 -0.2 89
2019-06-06 04:00:00 4.9 0 Calma 8 Sudeste 0 892 0 88
2019-06-06 03:00:00 5.2 3 Sudeste 8 Sur 0 892 -0.3 87
2019-06-06 02:00:00 5.2 5 Sur 12 Sur 0 892.1 0.3 88
2019-06-06 01:00:00 5.6 0 Calma 10 Sur 0 892 0.8 84
2019-06-06 00:00:00 7.1 9 Sur 12 Sur 0 892.3 1.4 81
2019-06-05 23:00:00 8.2 4 Sudeste 12 Sur 0 891.8 1.3 74
2019-06-05 22:00:00 10.7 6 Oeste 19 Oeste 0 891.2 0.8 59
2019-06-05 21:00:00 12.4 5 Oeste 17 Oeste 0 890.9 0.5 54
2019-06-05 20:00:00 13.7 6 Noroeste 24 Noroeste 0 890.5 0 46
2019-06-05 19:00:00 14.4 9 Noroeste 22 Noroeste 0 890.4 -0.6 45
2019-06-05 18:00:00 14.3 6 Noroeste 18 Noroeste 0 890.4 -0.3 50
2019-06-05 17:00:00 14.8 5 Sudeste 22 Este 0 890.5 -0.8 52
2019-06-05 16:00:00 12.2 4 Sudoeste 49 Oeste 0.2 891 0.2 64
2019-06-05 15:00:00 13.1 9 Noroeste 23 Noroeste 0 890.7 1.2 60
2019-06-05 14:00:00 9.9 13 Noroeste 29 Noroeste 0.6 891.3 2.1 70
2019-06-05 13:00:00 7.3 20 Oeste 44 Noroeste 0.8 890.8 2.8 81
2019-06-05 12:00:00 9.3 18 Oeste 35 Oeste 0 889.5 1.8 67
2019-06-05 11:00:00 8.3 10 Noroeste 38 Oeste 0.4 889.2 2.4 79
2019-06-05 10:00:00 9.1 13 Oeste 29 Oeste 0 888 1.6 68
2019-06-05 09:00:00 8.3 21 Oeste 35 Noroeste 0 887.7 1.4 78
2019-06-05 08:00:00 8.1 15 Oeste 40 Oeste 0 886.8 0.5 81
2019-06-05 07:00:00 8.8 12 Oeste 26 Oeste 0 886.4 -0.1 82
2019-06-05 06:00:00 10 12 Oeste 23 Oeste 0 886.3 -0.6 82
2019-06-05 05:00:00 10.8 3 Nordeste 13 Norte 0 886.3 -1.1 82
2019-06-05 04:00:00 11.1 4 Noroeste 13 Norte 0 886.5 -1.5 80
2019-06-05 03:00:00 11.3 2 Sur 8 Sudeste 0 886.9 -1.6 76
2019-06-05 02:00:00 12.3 3 Noroeste 15 Sudoeste 0 887.4 -1.1 71
2019-06-05 01:00:00 13.1 6 Sudoeste 13 Oeste 0 888 -0.2 67
2019-06-05 00:00:00 13.6 5 Oeste 27 Oeste 0 888.5 0.4 63
2019-06-04 23:00:00 14.8 8 Oeste 16 Noroeste 0 888.5 0.2 55
2019-06-04 22:00:00 16.4 6 Noroeste 31 Noroeste 0 888.2 -0.1 51
2019-06-04 21:00:00 17.8 14 Noroeste 34 Noroeste 0 888.1 -0.3 45
2019-06-04 20:00:00 19.6 12 Noroeste 29 Oeste 0 888.3 -0.3 38
2019-06-04 19:00:00 20.3 13 Oeste 33 Oeste 0 888.3 -0.7 34
2019-06-04 18:00:00 21.3 21 Noroeste 40 Oeste 0 888.4 -1.2 33
2019-06-04 17:00:00 23.1 11 Oeste 36 Sudoeste 0 888.6 -1.6 31
2019-06-04 16:00:00 24.1 13 Oeste 52 Noroeste 0 889 -1.4 32
2019-06-04 15:00:00 22.8 18 Oeste 43 Sudoeste 0 889.6 -1 31
2019-06-04 14:00:00 21.6 17 Sudoeste 38 Sudoeste 0 890.2 -0.6 37
2019-06-04 13:00:00 22.1 14 Sudoeste 30 Oeste 0 890.4 -0.7 42
2019-06-04 12:00:00 20.9 10 Sudoeste 33 Sur 0 890.6 -0.4 42
2019-06-04 11:00:00 19.7 9 Sudoeste 23 Sur 0 890.8 -0.4 54
2019-06-04 10:00:00 17.8 3 Norte 8 Este 0 891.1 0 60
2019-06-04 09:00:00 13.5 4 Sudeste 15 Sur 0 891 -0.2 57
2019-06-04 08:00:00 7.8 6 Sudeste 15 Sur 0 891.2 -0.4 69
2019-06-04 07:00:00 7.3 4 Sudeste 14 Sur 0 891.1 -0.4 69
2019-06-04 06:00:00 7.8 3 Sudeste 14 Sur 0 891.2 -0.8 67
2019-06-04 05:00:00 7.4 3 Sudeste 11 Sudoeste 0 891.6 -0.8 68
2019-06-04 04:00:00 8.4 2 Sudeste 13 Sur 0 891.5 -1.6 65
2019-06-04 03:00:00 9 8 Sur 21 Sur 0 892 -1.5 60
2019-06-04 02:00:00 10.5 13 Sur 20 Sur 0 892.4 -1.1 54
2019-06-04 01:00:00 12.4 5 Sur 11 Sudeste 0 893.1 0.2 49
2019-06-04 00:00:00 14.2 7 Sudeste 11 Sudeste 0 893.5 0.6 43
2019-06-03 23:00:00 15.1 3 Oeste 16 Sur 0 893.5 0.6 41
2019-06-03 22:00:00 19.4 2 Sudoeste 19 Oeste 0 892.9 -0.3 28
2019-06-03 21:00:00 24.5 9 Oeste 28 Oeste 0 892.9 -0.6 15
2019-06-03 20:00:00 26.5 13 Oeste 30 Oeste 0 892.9 -1 13
2019-06-03 19:00:00 26.7 17 Oeste 34 Oeste 0 893.2 -1.5 12
2019-06-03 18:00:00 28.2 14 Oeste 43 Oeste 0 893.5 -1.6 13
2019-06-03 17:00:00 28.2 12 Oeste 45 Oeste 0 893.9 -1.6 13
2019-06-03 16:00:00 27.1 21 Oeste 42 Oeste 0 894.7 -1.3 13
2019-06-03 15:00:00 26.6 12 Sudoeste 31 Sudoeste 0 895.1 -1.2 15
2019-06-03 14:00:00 25.9 11 Oeste 28 Sur 0 895.5 -0.8 20
2019-06-03 13:00:00 25 13 Oeste 32 Oeste 0 896 -0.4 22
2019-06-03 12:00:00 23.4 9 Noroeste 21 Noroeste 0 896.3 -0.3 29
2019-06-03 11:00:00 21 6 Norte 16 Norte 0 896.3 0.1 33
2019-06-03 10:00:00 18.1 0 Calma 7 Nordeste 0 896.4 0.1 49
2019-06-03 09:00:00 13.7 3 Oeste -- -- 0 896.6 0.4 59
2019-06-03 08:00:00 10.2 3 Sudeste 17 Sur 0 896.2 0.1 64
2019-06-03 07:00:00 8.9 9 Sudeste 23 Sur 0 896.3 0.2 66
2019-06-03 06:00:00 9.8 5 Sur 17 Sur 0 896.2 -0.2 63
2019-06-03 05:00:00 9.8 5 Sur 17 Sur 0 896.1 -0.5 64
2019-06-03 04:00:00 10.8 7 Sur 17 Sur 0 896.1 -0.9 60
2019-06-03 03:00:00 11.3 5 Sudeste 17 Sur 0 896.4 -0.9 62
2019-06-03 02:00:00 13.2 9 Sur 17 Sur 0 896.6 -0.4 54
2019-06-03 01:00:00 14.5 3 Este 15 Sur 0 897 0.6 52
2019-06-03 00:00:00 17.2 6 Sur 14 Sur 0 897.3 1.2 43
2019-06-02 23:00:00 18.5 4 Sur 8 Oeste 0 897 1.1 40
2019-06-02 22:00:00 21.8 4 Oeste 10 Noroeste 0 896.4 0.4 28
2019-06-02 21:00:00 24.8 5 Noroeste 18 Noroeste 0 896.1 0.1 25
2019-06-02 20:00:00 25.5 5 Norte 24 Norte 0 895.9 -0.4 24
2019-06-02 19:00:00 26.1 15 Noroeste 32 Noroeste 0 896 -0.7 22
2019-06-02 18:00:00 28.7 8 Noroeste 26 Oeste 0 896 -1 20
2019-06-02 17:00:00 27.7 6 Norte 37 Noroeste 0 896.3 -1.2 20
2019-06-02 16:00:00 28.3 14 Noroeste 42 Noroeste 0 896.7 -1.3 21
2019-06-02 15:00:00 27.5 15 Oeste 31 Oeste 0 897 -1.2 24
2019-06-02 14:00:00 28 10 Sudoeste 23 Noroeste 0 897.5 -0.8 26
2019-06-02 13:00:00 26.7 8 Noroeste 18 Este 0 898 -0.4 29
2019-06-02 12:00:00 25.5 5 Sur 15 Sudeste 0 898.2 0.1 29
2019-06-02 11:00:00 24.1 6 Sudeste 16 Este 0 898.3 0.3 28
2019-06-02 10:00:00 22 4 Sudeste 13 Este 0 898.4 0.6 36
2019-06-02 09:00:00 18 5 Sudeste 13 Este 0 898.1 0.6 45
2019-06-02 08:00:00 14.2 2 Nordeste 13 Oeste 0 898 0.3 57
2019-06-02 07:00:00 12.6 4 Este 14 Sudeste 0 897.8 0 58
2019-06-02 06:00:00 13.2 5 Sudeste 13 Este 0 897.5 -0.6 56
2019-06-02 05:00:00 15.4 6 Sur 17 Este 0 897.7 -0.7 48
2019-06-02 04:00:00 14.6 12 Este 16 Este 0 897.8 -0.7 52
2019-06-02 03:00:00 15.9 9 Sudeste 13 Este 0 898.1 -0.6 49
2019-06-02 02:00:00 14.6 9 Sudeste 17 Este 0 898.4 -0.1 59
2019-06-02 01:00:00 17.7 11 Sudeste 21 Este 0 898.5 0.6 47
2019-06-02 00:00:00 18.7 15 Este 20 Este 0 898.7 1.1 44
2019-06-01 23:00:00 19.2 10 Sur 19 Sur 0 898.5 1.4 42
2019-06-01 22:00:00 22.9 8 Sudeste 14 Este 0 897.9 0.7 29
2019-06-01 21:00:00 26.7 9 Este 19 Noroeste 0 897.6 0.2 24
2019-06-01 20:00:00 28.7 8 Noroeste 23 Noroeste 0 897.1 -0.7 19
2019-06-01 19:00:00 29.3 11 Noroeste 25 Noroeste 0 897.2 -1.2 17
2019-06-01 18:00:00 29.9 4 Sudoeste 21 Norte 0 897.4 -1.3 16
2019-06-01 17:00:00 29.3 11 Noroeste 25 Norte 0 897.8 -1.5 15
2019-06-01 16:00:00 29.3 9 Sudoeste 31 Noroeste 0 898.4 -1.3 17
2019-06-01 15:00:00 28.3 8 Noroeste 25 Noroeste 0 898.7 -1.2 16
2019-06-01 14:00:00 28 8 Oeste 23 Oeste 0 899.3 -0.7 15
2019-06-01 13:00:00 27.1 10 Oeste 21 Oeste 0 899.7 -0.4 21
2019-06-01 12:00:00 25.9 7 Noroeste 14 Noroeste 0 899.9 -0.2 22
2019-06-01 11:00:00 24.4 3 Sudeste 11 Sudeste 0 900 0 24
2019-06-01 10:00:00 20.5 4 Este 10 Este 0 900.1 0.3 41
2019-06-01 09:00:00 16.2 5 Este 14 Sur 0 900.1 0.3 49
2019-06-01 08:00:00 11.6 7 Sur 13 Sur 0 900 -0.1 58
2019-06-01 07:00:00 8.5 9 Sur 14 Sur 0 899.8 -0.6 69
2019-06-01 06:00:00 8.8 5 Sudeste 17 Sudeste 0 899.8 -0.8 70
2019-06-01 05:00:00 9.3 3 Sudoeste 18 Este 0 900.1 -0.6 69
2019-06-01 04:00:00 11.5 9 Sudeste 19 Sudeste 0 900.4 -0.5 62
2019-06-01 03:00:00 11 10 Sur 21 Sur 0 900.6 -0.4 66
2019-06-01 02:00:00 12.3 12 Sur 17 Sur 0 900.7 -0.1 63
2019-06-01 01:00:00 14 5 Sur 10 Sudeste 0 900.9 0.8 57
2019-06-01 00:00:00 16 4 Sudeste 18 Sur 0 901 1.2 50
2019-05-31 23:00:00 18.1 8 Sur 14 Sur 0 900.8 1.4 43
2019-05-31 22:00:00 21.6 9 Sudeste 19 Sudeste 0 900.1 0.5 31
2019-05-31 21:00:00 25.1 8 Sudeste 18 Sudeste 0 899.8 -0.1 28
2019-05-31 20:00:00 27.5 3 Norte 16 Noroeste 0 899.4 -0.8 19
2019-05-31 19:00:00 27.8 7 Noroeste 21 Noroeste 0 899.6 -1 17
2019-05-31 18:00:00 27.8 10 Noroeste 23 Noroeste 0 899.9 -1.2 19
2019-05-31 17:00:00 27.9 5 Norte 19 Oeste 0 900.2 -1.3 20
2019-05-31 16:00:00 27 6 Noroeste 24 Norte 0 900.6 -1.3 22
2019-05-31 15:00:00 26.2 8 Norte 20 Noroeste 0 901.1 -0.9 21
2019-05-31 14:00:00 25.4 10 Noroeste 20 Norte 0 901.5 -0.8 23
2019-05-31 13:00:00 24.6 6 Norte 12 Nordeste 0 901.9 -0.7 20
2019-05-31 12:00:00 23.3 3 Sudeste 11 Norte 0 902 -0.5 25
2019-05-31 11:00:00 21.3 4 Este 12 Este 0 902.3 -0.3 33
2019-05-31 10:00:00 17.9 7 Este 11 Este 0 902.6 0.4 44
2019-05-31 09:00:00 12.5 3 Nordeste 8 Sur 0 902.5 0.2 59
2019-05-31 08:00:00 7.9 3 Sudeste 13 Sur 0 902.6 0.2 76
2019-05-31 07:00:00 5.1 7 Sur 13 Sur 0 902.2 -0.4 85
2019-05-31 06:00:00 6.1 5 Sudeste 14 Sur 0 902.3 -0.4 82
2019-05-31 05:00:00 7.3 8 Sur 14 Sur 0 902.4 -0.5 80
2019-05-31 04:00:00 7.7 7 Este 13 Sur 0 902.6 -0.5 78
2019-05-31 03:00:00 7.2 2 Sudoeste 6 Este 0 902.7 -0.5 78
2019-05-31 02:00:00 9 2 Oeste 6 Sudoeste 0 902.9 -0.3 71
2019-05-31 01:00:00 11.4 2 Nordeste 16 Sur 0 903.1 0.7 64
2019-05-31 00:00:00 15.9 8 Sur 16 Sur 0 903.2 1.1 48
2019-05-30 23:00:00 16.6 6 Sur 16 Sudeste 0 903.2 1.3 43
2019-05-30 22:00:00 18.2 7 Sudeste 13 Sur 0 902.4 0.6 36
2019-05-30 21:00:00 21.8 6 Este 24 Nordeste 0 902.1 0.3 25
2019-05-30 20:00:00 23.1 14 Nordeste 29 Nordeste 0 901.9 -0.4 21
2019-05-30 19:00:00 24.8 13 Este 26 Este 0 901.8 -0.7 17
2019-05-30 18:00:00 25.5 13 Este 28 Este 0 901.8 -1 14
2019-05-30 17:00:00 25.3 13 Este 28 Este 0 902.3 -0.6 14
2019-05-30 16:00:00 25.2 11 Nordeste 26 Nordeste 0 902.5 -0.5 14
2019-05-30 15:00:00 24.2 15 Nordeste 30 Nordeste 0 902.8 -0.5 14
2019-05-30 14:00:00 23.9 9 Nordeste 30 Este 0 902.9 -0.3 17
2019-05-30 13:00:00 22.9 17 Este 34 Este 0 903 -0.4 20
2019-05-30 12:00:00 21.4 8 Noroeste 30 Este 0 903.3 -0.1 28
2019-05-30 11:00:00 20.1 12 Este 21 Este 0 903.2 0 28
2019-05-30 10:00:00 15 5 Noroeste 10 Noroeste 0 903.4 0.3 57
2019-05-30 09:00:00 10.9 3 Nordeste 6 Nordeste 0 903.4 0.7 69
2019-05-30 08:00:00 6.1 0 Calma 6 Oeste 0 903.2 0.5 81
2019-05-30 07:00:00 2.7 3 Oeste 11 Este 0 903.1 0.1 89
2019-05-30 06:00:00 3.8 4 Sur 12 Este 0 902.7 -0.4 87
2019-05-30 05:00:00 3.7 3 Norte 12 Sudeste 0 902.7 -0.7 86
2019-05-30 04:00:00 5.5 2 Nordeste 10 Noroeste 0 903 -0.1 80
2019-05-30 03:00:00 6.2 5 Noroeste 18 Sudeste 0 903.1 0 78
2019-05-30 02:00:00 6.2 6 Oeste 12 Este 0 903.4 0.5 78
2019-05-30 01:00:00 7.5 4 Oeste 13 Norte 0 903.1 0.9 73
2019-05-30 00:00:00 8.6 4 Noroeste 12 Sur 0 903.1 1.2 68
2019-05-29 23:00:00 10.9 3 Este 21 Sudoeste 0 902.9 1.1 58
2019-05-29 22:00:00 12.9 13 Sudoeste 24 Sudoeste 0 902.2 0.6 51
2019-05-29 21:00:00 16.3 7 Oeste 21 Noroeste 0 901.9 0.6 40
2019-05-29 20:00:00 16.4 15 Norte 40 Noroeste 0 901.8 0.6 39
2019-05-29 19:00:00 18 10 Norte 27 Noroeste 0 901.6 0.4 35
2019-05-29 18:00:00 18.3 13 Este 31 Este 0 901.3 0.3 42
2019-05-29 17:00:00 18.3 15 Este 34 Este 0 901.2 0.1 43
2019-05-29 16:00:00 17.9 16 Este 30 Este 0 901.2 -0.2 45
2019-05-29 15:00:00 17.1 18 Este 33 Este 0 901 -0.4 47
2019-05-29 14:00:00 16.2 17 Este 33 Este 0 901.1 -0.3 48
2019-05-29 13:00:00 14.4 11 Este 38 Norte 0 901.4 0.2 53
2019-05-29 12:00:00 14.4 15 Nordeste 30 Norte 0 901.4 0.5 52
2019-05-29 11:00:00 12 13 Nordeste 32 Noroeste 0 901.4 1 55
2019-05-29 10:00:00 11.7 8 Sudeste 30 Este 0 901.2 1.2 56
2019-05-29 09:00:00 11.4 10 Este 18 Sudoeste 0 900.9 1 58
2019-05-29 08:00:00 6.4 6 Sur 22 Oeste 0 900.4 0.3 73
2019-05-29 07:00:00 5.5 4 Sudoeste 15 Sur 0 900 -0.2 75
2019-05-29 06:00:00 5.6 9 Sudoeste 15 Sudoeste 0 899.9 0 74
2019-05-29 05:00:00 4.2 9 Sur 19 Noroeste 0 900.1 0.5 77
2019-05-29 04:00:00 3.8 7 Oeste 23 Sur 0 900.2 0.6 77
2019-05-29 03:00:00 5.3 10 Sur 21 Sudoeste 0 899.9 0.4 71
2019-05-29 02:00:00 5.2 8 Sur 30 Sudoeste 0 899.6 0.5 72
2019-05-29 01:00:00 5.7 6 Sur 17 Sur 0 899.6 0.7 72
2019-05-29 00:00:00 6.1 6 Sur 13 Oeste 0 899.5 1 70
2019-05-28 23:00:00 8.1 5 Sudeste 24 Norte 0 899.1 0.9 63
2019-05-28 22:00:00 9 8 Norte 29 Norte 0 898.9 1 57
2019-05-28 21:00:00 11.1 16 Norte 35 Norte 0 898.5 0.9 50
2019-05-28 20:00:00 12.3 18 Norte 33 Nordeste 0 898.2 1.3 48
2019-05-28 19:00:00 13.4 20 Norte 38 Noroeste 0 897.9 1.5 45
2019-05-28 18:00:00 14.3 22 Norte 40 Norte 0 897.6 1.5 44
2019-05-28 17:00:00 15 21 Noroeste 38 Norte 0 896.9 0.7 41
2019-05-28 16:00:00 16.3 18 Noroeste 37 Este 0 896.4 0.4 34
2019-05-28 15:00:00 15.8 12 Nordeste 32 Noroeste 0 896.1 -0.1 41
2019-05-28 14:00:00 16.6 9 Norte 33 Este 0 896.2 0.4 35
2019-05-28 13:00:00 15.5 10 Este 23 Este 0 896 0.1 43
2019-05-28 12:00:00 13.7 8 Este 24 Sudeste 0 896.2 0.7 42
2019-05-28 11:00:00 12.8 6 Sudoeste 18 Este 0 895.8 0.6 47
2019-05-28 10:00:00 10.9 8 Este 16 Este 0 895.9 1.4 55
2019-05-28 09:00:00 7.2 3 Noroeste 6 Noroeste 0 895.5 1.2 73
2019-05-28 08:00:00 2.7 3 Norte 6 Oeste 0 895.2 1.1 87
2019-05-28 07:00:00 1.9 2 Este 12 Sur 0 894.5 0.3 86
2019-05-28 06:00:00 2.6 2 Sur 4 Noroeste 0 894.3 -0.1 86
2019-05-28 05:00:00 3.8 3 Noroeste 13 Sur 0 894.1 -0.3 84
2019-05-28 04:00:00 6 7 Sur 15 Sur 0 894.2 -0.2 71
2019-05-28 03:00:00 5.5 2 Sudeste 14 Sur 0 894.4 -0.2 76
2019-05-28 02:00:00 7.1 10 Sur 19 Sur 0 894.4 -0.1 74
2019-05-28 01:00:00 8.2 9 Sur 17 Sudoeste 0 894.4 0.2 74
2019-05-28 00:00:00 9.7 6 Sur 13 Sudeste 0 894.6 0.7 74
2019-05-27 23:00:00 10.9 5 Sur 15 Nordeste 0 894.5 1.1 72
2019-05-27 22:00:00 13 13 Norte 25 Norte 0 894.2 0.8 63
2019-05-27 21:00:00 15.4 12 Noroeste 37 Nordeste 0 893.9 0.7 50
2019-05-27 20:00:00 17.1 15 Norte 35 Norte 0 893.4 -0.1 44
2019-05-27 19:00:00 18.2 17 Norte 33 Norte 0 893.4 0.1 42
2019-05-27 18:00:00 19.2 14 Norte 35 Norte 0 893.2 -0.4 41
2019-05-27 17:00:00 18.9 18 Norte 38 Norte 0 893.5 -0.2 46
2019-05-27 16:00:00 19.5 18 Norte 36 Noroeste 0 893.3 -0.6 43
2019-05-27 15:00:00 20.1 15 Norte 33 Noroeste 0 893.6 -0.2 41
2019-05-27 14:00:00 19.2 12 Norte 32 Noroeste 0 893.7 -0.4 42
2019-05-27 13:00:00 18.6 8 Norte 34 Oeste 0 893.9 -0.5 47
2019-05-27 12:00:00 19.4 6 Noroeste 29 Oeste 0 893.8 -0.4 41
2019-05-27 11:00:00 18.1 4 Oeste 18 Noroeste 0 894.1 -0.4 48
2019-05-27 10:00:00 15.1 6 Noroeste 14 Norte 0 894.4 0.2 57
2019-05-27 09:00:00 9.1 2 Noroeste 20 Oeste 0 894.2 0 78
2019-05-27 08:00:00 6.6 3 Sur 11 Sudeste 0 894.5 0.1 84
2019-05-27 07:00:00 4.8 3 Sudeste 15 Sur 0 894.2 -0.9 86
2019-05-27 06:00:00 4.9 0 Calma 12 Sur 0 894.2 -1.3 88
2019-05-27 05:00:00 5.1 3 Noroeste 15 Sur 0 894.4 -1.8 86
2019-05-27 04:00:00 6.2 4 Sudeste 17 Sur 0 895.1 -0.9 83
2019-05-27 03:00:00 6.8 6 Sudeste 15 Sur 0 895.5 -0.9 82
2019-05-27 02:00:00 7.6 9 Sur 18 Sur 0 896.2 -0.4 79
2019-05-27 01:00:00 8.3 10 Sur 19 Sur 0 896 -0.3 77
2019-05-27 00:00:00 9.3 3 Sudoeste 9 Nordeste 0 896.4 0.2 75
2019-05-26 23:00:00 11.8 4 Nordeste 24 Oeste 0 896.6 0.3 63
2019-05-26 22:00:00 13.5 11 Oeste 30 Oeste 0 896.3 -0.1 57
2019-05-26 21:00:00 17 4 Sudoeste 17 Este 0 896.2 -0.3 48
2019-05-26 20:00:00 17.5 12 Este 35 Este 0 896.3 -0.6 44
2019-05-26 19:00:00 18.7 13 Noroeste 32 Oeste 0 896.4 -0.6 42
2019-05-26 18:00:00 19.1 9 Este 23 Este 0 896.5 -0.5 43
2019-05-26 17:00:00 19.1 13 Este 23 Este 0 896.9 -0.5 44
2019-05-26 16:00:00 18.7 15 Este 36 Este 0 897 -0.5 47
2019-05-26 15:00:00 19.1 8 Noroeste 24 Este 0 897 -0.7 42
2019-05-26 14:00:00 17.5 15 Este 29 Sudeste 0 897.4 -0.5 45
2019-05-26 13:00:00 16.5 21 Este 32 Este 0 897.5 -0.6 48
2019-05-26 12:00:00 16.1 10 Este 23 Este 0 897.7 -0.8 49
2019-05-26 11:00:00 14.7 5 Oeste 20 Este 0 897.9 -0.6 50
2019-05-26 10:00:00 12.6 6 Sudeste -- -- 0 898.1 -0.1 55
2019-05-26 09:00:00 10.2 2 Nordeste 15 Nordeste 0 898.5 0.3 63
2019-05-26 08:00:00 4.2 4 Oeste 9 Noroeste 0 898.5 0.2 82
2019-05-26 07:00:00 2.5 3 Oeste 12 Este 0 898.2 -0.2 87
2019-05-26 06:00:00 3.9 3 Noroeste 15 Noroeste 0 898.2 -0.5 80
2019-05-26 05:00:00 4 4 Noroeste 18 Este 0 898.3 -0.4 79
2019-05-26 04:00:00 5.9 3 Sudeste 17 Sudeste 0 898.4 -0.5 70
2019-05-26 03:00:00 6.6 6 Sudoeste 32 Este 0 898.7 -0.5 68
2019-05-26 02:00:00 7.6 17 Este 29 Este 0 898.7 -0.2 66
2019-05-26 01:00:00 6.9 9 Sur 16 Sudoeste 0 898.9 0.2 71
2019-05-26 00:00:00 7.6 8 Sur 14 Sur 0 899.2 0.9 71
2019-05-25 23:00:00 8.5 7 Sudoeste 24 Sudeste 0 898.9 0.9 68
2019-05-25 22:00:00 9.4 9 Sudeste 22 Este 0 898.7 0.4 66
2019-05-25 21:00:00 11.9 9 Este 31 Este 0 898.3 0.1 58
2019-05-25 20:00:00 13.3 15 Este 29 Este 0 898 -0.3 54
2019-05-25 19:00:00 14.6 11 Nordeste 33 Este 0 898.3 0 50
2019-05-25 18:00:00 14.6 21 Este 46 Este 0 898.2 -0.3 54
2019-05-25 17:00:00 14.3 27 Este 45 Nordeste 0 898.3 -0.2 56
2019-05-25 16:00:00 14.5 26 Este 44 Nordeste 0 898.3 -0.3 51
2019-05-25 15:00:00 14.6 25 Este 40 Este 0 898.5 -0.3 55
2019-05-25 14:00:00 13.6 27 Este 51 Este 0 898.5 -0.1 55
2019-05-25 13:00:00 13.6 23 Este 42 Este 0 898.6 0.1 57
2019-05-25 12:00:00 12.6 8 Noroeste 36 Norte 0 898.8 0.7 57
2019-05-25 11:00:00 12.2 16 Nordeste 33 Nordeste 0 898.6 0.6 57
2019-05-25 10:00:00 11.7 8 Norte 29 Norte 0 898.5 1.1 61
2019-05-25 09:00:00 9 14 Norte 30 Nordeste 0 898.1 1.1 66
2019-05-25 08:00:00 8.6 12 Norte 33 Norte 0 898 1.5 66
2019-05-25 07:00:00 8 6 Norte 28 Nordeste 0 897.4 0.3 68
2019-05-25 06:00:00 8.2 8 Norte 28 Norte 0 897 0 67
2019-05-25 05:00:00 8.7 15 Norte 35 Norte 0 896.5 -0.6 68
2019-05-25 04:00:00 8.8 11 Norte 25 Noroeste 0 897.1 -0.2 71
2019-05-25 03:00:00 8.4 2 Oeste 18 Sur 0 897 -0.5 73
2019-05-25 02:00:00 9 7 Sudoeste 23 Noroeste 0 897.1 -0.3 71
2019-05-25 01:00:00 9.3 11 Norte 32 Noroeste 0 897.3 0.8 71
2019-05-25 00:00:00 9.3 7 Sudoeste 27 Nordeste 0 897.5 1.1 72
2019-05-24 23:00:00 9.5 10 Norte 28 Norte 0 897.4 1.2 70
2019-05-24 22:00:00 9.7 15 Norte 28 Noroeste 0 896.5 0.7 67
2019-05-24 21:00:00 10.3 9 Norte 33 Este 0 896.4 0.5 65
2019-05-24 20:00:00 10.9 14 Norte -- -- 0 896.2 0.7 61
2019-05-24 19:00:00 11.9 21 Norte 45 Norte 0 895.8 0.2 55
2019-05-24 18:00:00 12.2 22 Norte 47 Nordeste 0 895.9 0.3 51
2019-05-24 17:00:00 14.1 20 Nordeste 42 Norte 0 895.5 0.1 49
2019-05-24 16:00:00 14.7 20 Norte 44 Nordeste 0 895.6 0.1 46
2019-05-24 15:00:00 14.9 16 Norte 42 Norte 0 895.6 0.5 50
2019-05-24 14:00:00 13.4 15 Norte 36 Nordeste 0 895.4 0.2 50
2019-05-24 13:00:00 13.4 16 Nordeste 46 Nordeste 0 895.5 0.3 56
2019-05-24 12:00:00 14.3 11 Nordeste 33 Norte 0 895.1 0 56
2019-05-24 11:00:00 13.7 9 Nordeste 33 Este 0 895.2 0.9 58
2019-05-24 10:00:00 13 13 Este 22 Este 0 895.2 1.1 63
2019-05-24 09:00:00 10.6 13 Este 25 Este 0 895.1 1 78
2019-05-24 08:00:00 8.7 10 Este 21 Sur 0 894.3 0.3 82
2019-05-24 07:00:00 8.9 9 Este 22 Este 1.2 894.1 -0.2 82
2019-05-24 06:00:00 9.5 5 Sudoeste 15 Este 0 894.1 -0.4 79
2019-05-24 05:00:00 10.2 6 Sudeste 15 Este 0 894 -0.6 73
2019-05-24 04:00:00 10.2 5 Sur 11 Sudoeste 0 894.3 -0.4 78
2019-05-24 03:00:00 10.6 5 Sudoeste 11 Sudoeste 0 894.5 0 78
2019-05-24 02:00:00 11.4 6 Sudoeste 19 Sudeste 0 894.6 0.1 77
2019-05-24 01:00:00 12.9 13 Este 26 Sudeste 0 894.7 0.4 72
2019-05-24 00:00:00 14.2 13 Sudeste 27 Este 0 894.5 0.6 69
2019-05-23 23:00:00 14.7 8 Este 30 Este 0 894.5 0.8 71
2019-05-23 22:00:00 16.5 14 Sudeste 30 Este 0 894.3 0.6 58
2019-05-23 21:00:00 17.7 17 Este 35 Este 0 893.9 -0.2 51
2019-05-23 20:00:00 19.9 11 Noroeste 23 Noroeste 0 893.7 -0.9 41
2019-05-23 19:00:00 21.2 12 Noroeste 27 Noroeste 0 893.7 -1.2 34
2019-05-23 18:00:00 22.7 9 Noroeste 24 Oeste 0 894.1 -1.2 32
2019-05-23 17:00:00 21.2 12 Oeste 31 Oeste 0 894.6 -1.2 37
2019-05-23 16:00:00 21.4 12 Oeste 26 Oeste 0 894.9 -1.3 32
2019-05-23 15:00:00 21.4 10 Oeste 23 Sudoeste 0 895.3 -1.1 34
2019-05-23 14:00:00 21.2 11 Sudoeste 24 Sur 0 895.8 -0.6 33
2019-05-23 13:00:00 21.1 5 Oeste 14 Noroeste 0 896.2 -0.3 34
2019-05-23 12:00:00 20.3 5 Sudeste 13 Sudeste 0 896.4 0.1 37
2019-05-23 11:00:00 18.4 8 Sur 68 Este 0 896.4 0.1 43
2019-05-23 10:00:00 16.6 10 Sudeste 15 Sudeste 0 896.5 0.4 49
2019-05-23 09:00:00 12 5 Sur 16 Sur 0 896.3 0.2 69
2019-05-23 08:00:00 9.6 6 Sudeste 18 Sur 0 896.3 0 71
2019-05-23 07:00:00 9 3 Sudeste 9 Sur 0 896.1 -0.4 73
2019-05-23 06:00:00 8.3 5 Sudeste 13 Este 0 896.1 -0.3 74
2019-05-23 05:00:00 9.1 10 Sudeste 18 Este 0 896.3 -0.4 70
2019-05-23 04:00:00 7.4 3 Sudeste 15 Sudeste 0 896.5 -0.3 75
2019-05-23 03:00:00 8.2 4 Sudeste 22 Sudeste 0 896.4 -0.2 73
2019-05-23 02:00:00 8.7 4 Sudeste 18 Sudeste 0 896.7 0.1 70
2019-05-23 01:00:00 9.3 9 Sur 18 Sur 0 896.8 0.8 69
2019-05-23 00:00:00 11.1 10 Sur 21 Sudeste 0 896.6 0.7 61
2019-05-22 23:00:00 12.9 4 Este 9 Sur 0 896.6 1 55
2019-05-22 22:00:00 16.5 3 Oeste 8 Oeste 0 896 0.4 39
2019-05-22 21:00:00 18.6 6 Noroeste 17 Noroeste 0 895.9 0.3 34
2019-05-22 20:00:00 20.6 9 Oeste 26 Oeste 0 895.6 -0.1 30
2019-05-22 19:00:00 21.7 7 Noroeste 30 Oeste 0 895.6 -0.3 29
2019-05-22 18:00:00 22.3 13 Noroeste 33 Noroeste 0 895.6 -0.5 29
2019-05-22 17:00:00 22 10 Noroeste 35 Oeste 0 895.7 -0.7 29
2019-05-22 16:00:00 21.2 13 Noroeste 30 Noroeste 0 895.9 -0.6 29
2019-05-22 15:00:00 20.8 13 Oeste 33 Oeste 0 896.1 -0.5 32
2019-05-22 14:00:00 20.5 10 Noroeste 33 Noroeste 0 896.4 0 34
2019-05-22 13:00:00 19.1 18 Oeste 33 Noroeste 0 896.5 0 33
2019-05-22 12:00:00 18.6 13 Noroeste 26 Oeste 0 896.6 0 36
2019-05-22 11:00:00 17.3 7 Noroeste 13 Noroeste 0 896.4 -0.1 39
2019-05-22 10:00:00 14 4 Nordeste 8 Este 0 896.5 0.4 52
2019-05-22 09:00:00 9.3 2 Oeste -- -- 0 896.6 0.4 67
2019-05-22 08:00:00 5 5 Sudeste 12 Sur 0 896.5 0.3 81
2019-05-22 07:00:00 2.8 5 Sudeste 12 Sur 0 896.1 -0.1 86
2019-05-22 06:00:00 3.1 4 Sudeste 10 Sudeste 0 896.2 0 86
2019-05-22 05:00:00 3.6 9 Sur 18 Sur 0 896.2 -0.2 85
2019-05-22 04:00:00 4.7 5 Sur 17 Este 0 896.2 0.2 82
2019-05-22 03:00:00 5.4 3 Sudeste 14 Sur 0 896.2 0.3 80
2019-05-22 02:00:00 6.1 6 Sudeste 13 Sur 0 896.4 0.6 78
2019-05-22 01:00:00 7.6 4 Sur 10 Sur 0 896 0.8 74
2019-05-22 00:00:00 10.7 7 Sur 14 Sur 0 895.9 1.4 61
2019-05-21 23:00:00 10.8 10 Sur 13 Sudeste 0 895.8 2 62
2019-05-21 22:00:00 12.7 7 Sur 62 Este 0 895.2 1.7 52
2019-05-21 21:00:00 15.7 11 Este 26 Nordeste 0 894.5 1 43
2019-05-21 20:00:00 18.4 10 Este 28 Sudeste 0 893.8 0.2 35
2019-05-21 19:00:00 17.6 12 Norte 29 Norte 0 893.5 0 38
2019-05-21 18:00:00 20.2 17 Noroeste 31 Noroeste 0 893.5 -0.2 31
2019-05-21 17:00:00 20.4 13 Noroeste 30 Oeste 0 893.6 -0.4 29
2019-05-21 16:00:00 18.7 12 Norte 23 Noroeste 0 893.5 -0.6 30
2019-05-21 15:00:00 19.8 7 Oeste 24 Oeste 0 893.7 -0.4 31
2019-05-21 14:00:00 17.1 6 Este 22 Noroeste 0 894 -0.1 30
2019-05-21 13:00:00 17.4 5 Este 17 Sudoeste 0 894.1 0.1 30
2019-05-21 12:00:00 15.9 5 Noroeste 12 Noroeste 0 894.1 0.1 42
2019-05-21 11:00:00 15.8 5 Este 12 Este 0 894.1 0.3 37
2019-05-21 10:00:00 12.1 2 Nordeste 7 Noroeste 0 894 0.7 54
2019-05-21 09:00:00 7.7 0 Calma 5 Sudoeste 0 894 0.9 75
2019-05-21 08:00:00 4.5 0 Calma 6 Sudeste 0 893.8 0.7 83
2019-05-21 07:00:00 2.6 4 Este 13 Sudeste 0 893.3 0.4 88
2019-05-21 06:00:00 2.9 4 Sur 14 Sur 0 893.1 0.2 88
2019-05-21 05:00:00 3.6 7 Sur 14 Sur 0 893.1 0 85
2019-05-21 04:00:00 4.8 3 Sudeste 10 Sur 0 892.9 0.1 82
2019-05-21 03:00:00 6 4 Sudeste 9 Este 0 892.9 0.3 78
2019-05-21 02:00:00 6.8 0 Calma 10 Sur 0 893.1 0.9 75
2019-05-21 01:00:00 8.9 6 Sur 15 Sur 0 892.8 1.3 65
2019-05-21 00:00:00 8.9 9 Sur 14 Sur 0 892.6 1.5 65